createdAt,value
2023-05-16T00:03:44.236Z,47.53
2023-05-16T00:08:45.788Z,47.66
2023-05-16T00:13:47.786Z,47.35
2023-05-16T00:18:49.798Z,47.41
2023-05-16T00:23:52.586Z,47.38
2023-05-16T00:28:54.192Z,47.56
2023-05-16T00:33:55.829Z,47.66
2023-05-16T00:38:58.918Z,47.52
2023-05-16T00:44:01.739Z,47.69
2023-05-16T00:49:04.036Z,47.78
2023-05-16T00:54:06.729Z,47.86
2023-05-16T00:59:08.288Z,48.08
2023-05-16T01:04:10.109Z,47.86
2023-05-16T01:09:12.791Z,48.16
2023-05-16T01:14:43.566Z,48.15
2023-05-16T01:19:57.041Z,48.25
2023-05-16T01:25:20.189Z,48.29
2023-05-16T01:30:21.973Z,48.66
2023-05-16T01:35:24.075Z,48.52
2023-05-16T01:40:39.551Z,48.66
2023-05-16T01:45:51.232Z,48.61
2023-05-16T01:50:56.625Z,48.81
2023-05-16T01:56:00.647Z,48.93
2023-05-16T02:01:04.347Z,49.08
2023-05-16T02:06:06.001Z,48.94
2023-05-16T02:11:07.616Z,49.26
2023-05-16T02:16:11.093Z,49.47
2023-05-16T02:21:12.608Z,49.31
2023-05-16T02:26:14.318Z,49.50
2023-05-16T02:31:28.979Z,49.36
2023-05-16T02:36:30.906Z,49.75
2023-05-16T02:41:33.238Z,49.63
2023-05-16T02:46:35.338Z,50.05
2023-05-16T02:51:38.729Z,49.96
2023-05-16T02:56:40.292Z,50.32
2023-05-16T03:01:41.925Z,50.27
2023-05-16T03:06:43.716Z,50.37
2023-05-16T03:11:45.781Z,50.36
2023-05-16T03:16:47.532Z,50.39
2023-05-16T03:21:49.225Z,50.13
2023-05-16T03:26:51.081Z,50.31
2023-05-16T03:31:56.250Z,50.20
2023-05-16T03:36:58.677Z,50.31
2023-05-16T03:42:00.388Z,50.31
2023-05-16T03:47:01.938Z,50.37
2023-05-16T03:52:05.217Z,50.22
2023-05-16T03:57:06.843Z,50.12
2023-05-16T04:02:09.651Z,50.37
2023-05-16T04:07:11.214Z,50.23
2023-05-16T04:12:12.708Z,50.37
2023-05-16T04:17:14.288Z,50.61
2023-05-16T04:22:16.032Z,50.45
2023-05-16T04:27:18.040Z,50.39
2023-05-16T04:32:19.865Z,50.53
2023-05-16T04:37:21.453Z,50.46
2023-05-16T04:42:24.118Z,50.64
2023-05-16T04:47:25.912Z,50.57
2023-05-16T04:52:27.457Z,50.77
2023-05-16T04:57:29.001Z,50.69
2023-05-16T05:02:30.503Z,50.68
2023-05-16T05:07:33.210Z,50.89
2023-05-16T05:12:35.843Z,50.85
2023-05-16T05:17:37.871Z,50.83
2023-05-16T05:22:39.572Z,51.26
2023-05-16T05:27:41.134Z,51.07
2023-05-16T05:32:42.676Z,50.94
2023-05-16T05:37:44.178Z,51.05
2023-05-16T05:42:47.268Z,51.45
2023-05-16T05:47:49.010Z,51.41
2023-05-16T05:52:50.651Z,51.18
2023-05-16T05:57:52.148Z,51.00
2023-05-16T06:02:53.749Z,50.90
2023-05-16T06:07:55.471Z,50.76
2023-05-16T06:12:56.950Z,50.50
2023-05-16T06:17:58.536Z,50.87
2023-05-16T06:23:00.091Z,50.35
2023-05-16T06:28:01.594Z,50.10
2023-05-16T06:33:03.198Z,49.70
2023-05-16T06:38:04.818Z,49.94
2023-05-16T06:43:06.450Z,49.41
2023-05-16T06:48:08.526Z,49.11
2023-05-16T06:53:12.064Z,49.16
2023-05-16T06:58:13.597Z,49.11
2023-05-16T07:03:15.246Z,49.05
2023-05-16T07:08:17.043Z,49.14
2023-05-16T07:13:18.635Z,49.12
2023-05-16T07:18:20.150Z,49.47
2023-05-16T07:23:22.242Z,49.18
2023-05-16T07:28:23.926Z,49.08
2023-05-16T07:33:25.752Z,49.62
2023-05-16T07:38:27.305Z,49.11
2023-05-16T07:43:30.270Z,49.16
2023-05-16T07:48:31.894Z,49.08
2023-05-16T07:53:33.497Z,49.18
2023-05-16T07:58:35.191Z,49.30
2023-05-16T08:03:37.264Z,49.59
2023-05-16T08:08:39.649Z,49.44
2023-05-16T08:13:41.166Z,49.38
2023-05-16T08:18:42.697Z,49.62
2023-05-16T08:23:44.239Z,49.34
2023-05-16T08:28:45.733Z,49.21
2023-05-16T08:33:47.230Z,49.00
2023-05-16T08:38:50.442Z,48.43
2023-05-16T08:43:52.651Z,48.75
2023-05-16T08:48:54.357Z,49.06
2023-05-16T08:54:11.390Z,49.03
2023-05-16T08:59:13.114Z,49.30
2023-05-16T09:04:16.095Z,48.54
2023-05-16T09:09:17.768Z,48.28
2023-05-16T09:14:19.357Z,47.84
2023-05-16T09:19:23.142Z,46.98
2023-05-16T09:24:26.340Z,46.98
2023-05-16T09:29:27.856Z,46.83
2023-05-16T09:34:29.368Z,46.95
2023-05-16T09:39:31.001Z,46.66
2023-05-16T09:44:32.776Z,46.12
2023-05-16T09:49:37.622Z,45.99
2023-05-16T09:54:39.553Z,45.71
2023-05-16T09:59:41.094Z,45.60
2023-05-16T10:04:42.662Z,45.28
2023-05-16T10:09:44.977Z,45.38
2023-05-16T10:14:49.943Z,45.64
2023-05-16T10:19:53.976Z,45.73
2023-05-16T10:25:16.054Z,45.25
2023-05-16T10:30:18.145Z,45.38
2023-05-16T10:35:20.780Z,44.86
2023-05-16T10:40:22.805Z,44.55
2023-05-16T10:45:24.586Z,44.42
2023-05-16T10:50:44.285Z,43.51
2023-05-16T10:56:10.047Z,44.04
2023-05-16T11:01:15.866Z,43.80
2023-05-16T11:06:23.577Z,43.78
2023-05-16T11:11:55.460Z,43.84
2023-05-16T11:17:03.575Z,43.41
2023-05-16T11:22:08.524Z,43.75
2023-05-16T11:27:14.139Z,43.42
2023-05-16T11:32:20.011Z,43.31
2023-05-16T11:37:21.698Z,43.15
2023-05-16T11:42:23.379Z,43.30
2023-05-16T11:47:24.982Z,43.16
2023-05-16T11:52:27.938Z,42.59
2023-05-16T11:57:29.495Z,43.00
2023-05-16T12:02:32.505Z,42.42
2023-05-16T12:07:34.039Z,42.40
2023-05-16T12:12:36.917Z,42.54
2023-05-16T12:17:40.449Z,42.72
2023-05-16T12:22:45.621Z,42.10
2023-05-16T12:27:47.194Z,42.63
2023-05-16T12:32:59.209Z,42.90
2023-05-16T12:38:05.568Z,43.16
2023-05-16T12:43:19.180Z,44.05
2023-05-16T12:48:21.603Z,44.54
2023-05-16T12:53:23.139Z,45.34
2023-05-16T12:58:24.799Z,45.74
2023-05-16T13:03:27.593Z,46.21
2023-05-16T13:08:29.631Z,46.23
2023-05-16T13:18:36.975Z,46.25
2023-05-16T13:23:38.559Z,46.59
2023-05-16T13:28:40.276Z,46.81
2023-05-16T13:33:41.793Z,47.17
2023-05-16T13:38:43.340Z,47.31
2023-05-16T13:43:44.931Z,47.72
2023-05-16T13:48:46.469Z,47.65
2023-05-16T13:53:48.090Z,48.01
2023-05-16T13:59:02.129Z,48.31
2023-05-16T14:04:05.814Z,48.46
2023-05-16T14:09:08.247Z,48.60
2023-05-16T14:14:09.812Z,48.29
2023-05-16T14:19:12.793Z,48.27
2023-05-16T14:24:14.343Z,48.03
2023-05-16T14:29:16.005Z,47.70
2023-05-16T14:34:17.828Z,47.78
2023-05-16T14:39:19.478Z,47.21
2023-05-16T14:44:24.623Z,46.90
2023-05-16T14:49:26.183Z,47.02
2023-05-16T14:54:27.710Z,47.07
2023-05-16T14:59:29.595Z,46.91
2023-05-16T15:04:31.160Z,46.41
2023-05-16T15:09:32.808Z,46.30
2023-05-16T15:14:34.324Z,46.40
2023-05-16T15:19:35.846Z,46.26
2023-05-16T15:24:37.457Z,46.17
2023-05-16T15:29:39.058Z,46.01
2023-05-16T15:34:40.672Z,45.77
2023-05-16T15:39:42.412Z,45.42
2023-05-16T15:44:43.967Z,45.36
2023-05-16T15:49:45.599Z,44.66
2023-05-16T15:54:47.123Z,44.18
2023-05-16T15:59:48.659Z,43.94
2023-05-16T16:04:51.708Z,43.73
2023-05-16T16:09:53.229Z,43.44
2023-05-16T16:14:55.008Z,43.51
2023-05-16T16:19:56.697Z,43.36
2023-05-16T16:24:58.314Z,42.38
2023-05-16T16:29:59.859Z,42.92
2023-05-16T16:35:05.387Z,42.46
2023-05-16T16:40:10.393Z,43.25
2023-05-16T16:45:12.063Z,43.46
2023-05-16T16:50:13.712Z,43.37
2023-05-16T16:55:15.503Z,43.33
2023-05-16T17:00:18.503Z,43.37
2023-05-16T17:05:20.055Z,43.33
2023-05-16T17:10:21.703Z,43.68
2023-05-16T17:15:23.296Z,43.93
2023-05-16T17:20:25.154Z,43.77
2023-05-16T17:25:28.507Z,43.77
2023-05-16T17:30:31.294Z,43.98
2023-05-16T17:35:35.613Z,43.60
2023-05-16T17:40:37.793Z,43.66
2023-05-16T17:45:39.762Z,43.71
2023-05-16T17:50:44.857Z,43.89
2023-05-16T17:55:46.959Z,44.00
2023-05-16T18:00:49.613Z,44.14
2023-05-16T18:05:51.796Z,44.27
2023-05-16T18:10:53.590Z,44.12
2023-05-16T18:15:55.323Z,44.53
2023-05-16T18:20:58.147Z,44.46
2023-05-16T18:25:59.952Z,44.68
2023-05-16T18:31:05.908Z,44.61
2023-05-16T18:36:08.399Z,44.90
2023-05-16T18:41:10.572Z,45.06
2023-05-16T18:46:12.320Z,45.05
2023-05-16T18:51:14.140Z,45.13
2023-05-16T18:56:16.298Z,44.87
2023-05-16T19:01:22.158Z,44.61
2023-05-16T19:06:23.989Z,44.48
2023-05-16T19:11:26.613Z,44.46
2023-05-16T19:16:28.300Z,44.21
2023-05-16T19:21:29.973Z,44.26
2023-05-16T19:26:31.529Z,44.08
2023-05-16T19:31:33.165Z,44.18
2023-05-16T19:36:34.891Z,44.14
2023-05-16T19:41:36.701Z,44.19
2023-05-16T19:46:39.163Z,44.51
2023-05-16T19:51:42.147Z,44.12
2023-05-16T19:56:44.040Z,43.99
2023-05-16T20:01:45.882Z,43.90
2023-05-16T20:06:47.556Z,43.70
2023-05-16T20:11:49.670Z,43.90
2023-05-16T20:16:51.480Z,43.52
2023-05-16T20:21:53.118Z,43.50
2023-05-16T20:26:54.725Z,43.78
2023-05-16T20:31:56.502Z,43.62
2023-05-16T20:36:58.555Z,43.52
2023-05-16T20:42:00.258Z,43.41
2023-05-16T20:47:01.887Z,43.49
2023-05-16T20:52:04.045Z,43.52
2023-05-16T20:57:05.911Z,43.42
2023-05-16T21:02:10.019Z,43.57
2023-05-16T21:07:11.871Z,43.46
2023-05-16T21:12:14.340Z,43.37
2023-05-16T21:17:15.893Z,43.24
2023-05-16T21:22:17.439Z,43.23
2023-05-16T21:27:19.008Z,43.58
2023-05-16T21:32:20.613Z,43.34
2023-05-16T21:37:22.202Z,43.16
2023-05-16T21:42:23.772Z,42.97
2023-05-16T21:47:26.205Z,42.73
2023-05-16T21:52:27.906Z,42.80
2023-05-16T21:57:29.475Z,42.49
2023-05-16T22:02:31.072Z,42.79
2023-05-16T22:07:32.974Z,42.77
2023-05-16T22:12:34.569Z,42.85
2023-05-16T22:17:36.487Z,42.60
2023-05-16T22:22:38.130Z,42.45
2023-05-16T22:27:39.680Z,42.92
2023-05-16T22:32:41.401Z,42.89
2023-05-16T22:37:43.000Z,43.04
2023-05-16T22:42:44.527Z,42.96
2023-05-16T22:47:46.124Z,43.47
2023-05-16T22:52:47.643Z,43.36
2023-05-16T22:57:49.173Z,43.33
2023-05-16T23:02:50.820Z,43.30
2023-05-16T23:07:52.406Z,43.38
2023-05-16T23:12:53.912Z,43.38
2023-05-16T23:17:56.194Z,43.24
2023-05-16T23:22:57.826Z,43.70
2023-05-16T23:27:59.399Z,43.92
2023-05-16T23:33:01.105Z,43.73
2023-05-16T23:38:02.694Z,43.85
2023-05-16T23:43:04.277Z,43.92
2023-05-16T23:48:06.180Z,44.52
2023-05-16T23:53:07.742Z,44.74
2023-05-16T23:58:09.271Z,44.61
